Time;durP1;ratioP1;P1;durP2;ratioP2;P2;SDS_P1;SDS_P2;PMS_P1;PMS_P2;Temp;Humidity;BMP_temperature;BMP_pressure;BME280_temperature;BME280_humidity;BME280_pressure;Samples;Min_cycle;Max_cycle;Signal;HPM_P1;HPM_P2
2023/12/02 00:00:13;;;;;;;29.67;10.25;;;-3.40;99.90;;;;;;4902282;29;20024;-92
2023/12/02 00:02:38;;;;;;;24.63;10.45;;;-3.50;99.90;;;;;;4919640;29;20081;-91
2023/12/02 00:05:04;;;;;;;30.75;10.73;;;-3.40;99.90;;;;;;4908371;29;20021;-91
2023/12/02 00:07:30;;;;;;;25.95;10.35;;;-3.40;99.90;;;;;;4905550;29;20048;-92
2023/12/02 00:09:56;;;;;;;30.25;11.13;;;-3.50;99.90;;;;;;4903423;29;20048;-91
2023/12/02 00:12:21;;;;;;;19.88;9.43;;;-3.50;99.90;;;;;;4904456;29;20119;-91
2023/12/02 00:14:47;;;;;;;22.20;9.57;;;-3.50;99.90;;;;;;4919303;29;20448;-90
2023/12/02 00:17:13;;;;;;;21.10;8.20;;;-3.50;99.90;;;;;;4901956;29;20024;-90
2023/12/02 00:19:38;;;;;;;26.17;8.95;;;-3.50;99.90;;;;;;4901757;29;20439;-91
2023/12/02 00:22:06;;;;;;;16.88;7.60;;;-3.50;99.90;;;;;;4933092;29;20067;-90
2023/12/02 00:24:32;;;;;;;20.90;8.80;;;-3.50;99.90;;;;;;4901942;29;20020;-92
2023/12/02 00:26:57;;;;;;;20.45;9.50;;;-3.50;99.90;;;;;;4902128;29;20050;-92
2023/12/02 00:29:23;;;;;;;24.08;9.38;;;-3.50;99.90;;;;;;4903321;29;20032;-92
2023/12/02 00:31:49;;;;;;;20.38;9.38;;;-3.40;99.90;;;;;;4907763;29;20040;-89
2023/12/02 00:34:14;;;;;;;24.33;9.73;;;-3.50;99.90;;;;;;4924368;29;20023;-91
2023/12/02 00:36:43;;;;;;;25.50;9.95;;;-3.50;99.90;;;;;;4917854;29;20115;-90
2023/12/02 00:39:08;;;;;;;22.55;9.82;;;-3.50;99.90;;;;;;4932146;29;20502;-91
2023/12/02 00:41:34;;;;;;;24.10;9.07;;;-3.60;99.90;;;;;;4900647;29;20032;-90
2023/12/02 00:44:00;;;;;;;20.67;8.57;;;-3.60;99.90;;;;;;4900899;29;20055;-91
2023/12/02 00:46:25;;;;;;;22.67;8.98;;;-3.60;99.90;;;;;;4900256;29;20028;-91
2023/12/02 00:48:51;;;;;;;21.63;9.13;;;-3.70;99.90;;;;;;4900874;29;20024;-91
2023/12/02 00:51:17;;;;;;;16.75;8.07;;;-3.70;99.90;;;;;;4900727;29;20051;-91
2023/12/02 00:53:44;;;;;;;19.05;8.43;;;-3.60;99.90;;;;;;4917243;29;20075;-91
2023/12/02 00:56:10;;;;;;;21.02;8.45;;;-3.60;99.90;;;;;;4900991;29;20024;-92
2023/12/02 00:58:35;;;;;;;20.80;8.50;;;-3.60;99.90;;;;;;4900402;29;20063;-92
2023/12/02 01:01:01;;;;;;;20.80;8.35;;;-3.70;99.90;;;;;;4900688;29;20156;-92
2023/12/02 01:03:27;;;;;;;19.33;8.45;;;-3.70;99.90;;;;;;4901882;29;20140;-92
2023/12/02 01:05:52;;;;;;;16.75;7.50;;;-3.70;99.90;;;;;;4901533;29;20028;-93
2023/12/02 01:08:18;;;;;;;17.20;7.05;;;-3.70;99.90;;;;;;4900338;29;20028;-91
2023/12/02 01:10:44;;;;;;;14.93;6.70;;;-3.70;99.90;;;;;;4906168;29;20047;-92
2023/12/02 01:13:09;;;;;;;14.52;6.30;;;-3.80;99.90;;;;;;4907966;29;20502;-92
2023/12/02 01:15:35;;;;;;;15.75;6.40;;;-3.80;99.90;;;;;;4903603;29;20020;-92
2023/12/02 01:18:01;;;;;;;15.77;7.90;;;-3.80;99.90;;;;;;4920423;29;20127;-92
2023/12/02 01:20:26;;;;;;;16.88;7.35;;;-3.80;99.90;;;;;;4919562;29;20008;-92
2023/12/02 01:22:52;;;;;;;20.65;7.65;;;-3.80;99.90;;;;;;4902536;29;20080;-93
2023/12/02 01:25:18;;;;;;;16.45;7.13;;;-3.80;99.90;;;;;;4900490;29;20047;-92
2023/12/02 01:27:43;;;;;;;16.83;7.45;;;-3.90;99.90;;;;;;4900034;29;20492;-90
2023/12/02 01:30:09;;;;;;;21.45;7.43;;;-3.90;99.90;;;;;;4899966;29;20472;-91
2023/12/02 01:32:35;;;;;;;18.90;7.72;;;-4.00;99.90;;;;;;4900312;29;20044;-92
2023/12/02 01:35:01;;;;;;;19.95;8.02;;;-4.00;99.90;;;;;;4900014;29;20054;-91
2023/12/02 01:37:27;;;;;;;20.08;7.88;;;-4.00;99.90;;;;;;4900295;29;20028;-91
2023/12/02 01:39:53;;;;;;;20.65;7.57;;;-4.00;99.90;;;;;;4900096;29;20123;-91
2023/12/02 01:42:19;;;;;;;20.77;7.85;;;-4.10;99.90;;;;;;4900103;29;20105;-92
2023/12/02 01:44:44;;;;;;;22.33;8.20;;;-4.10;99.90;;;;;;4900260;29;20016;-91
2023/12/02 01:47:10;;;;;;;16.05;7.38;;;-4.20;99.90;;;;;;4900229;29;20028;-91
2023/12/02 01:49:37;;;;;;;19.50;8.05;;;-4.20;99.90;;;;;;4904023;29;20024;-92
2023/12/02 01:52:03;;;;;;;20.88;7.95;;;-4.20;99.90;;;;;;4905466;29;20032;-92
2023/12/02 01:54:29;;;;;;;18.75;7.40;;;-4.20;99.90;;;;;;4900809;29;20024;-92
2023/12/02 01:56:55;;;;;;;19.05;7.53;;;-4.20;99.90;;;;;;4900986;29;20052;-93
2023/12/02 01:59:22;;;;;;;19.23;8.23;;;-4.30;99.90;;;;;;4903666;29;20064;-92
2023/12/02 02:01:48;;;;;;;16.75;6.50;;;-4.30;99.90;;;;;;4901054;29;20034;-92
2023/12/02 02:04:14;;;;;;;18.67;7.00;;;-4.20;99.90;;;;;;4903719;29;20020;-92
2023/12/02 02:06:39;;;;;;;23.77;6.82;;;-4.30;99.90;;;;;;4920227;29;20043;-92
2023/12/02 02:09:05;;;;;;;17.05;6.50;;;-4.30;99.90;;;;;;4903075;29;20111;-92
2023/12/02 02:11:31;;;;;;;14.80;6.20;;;-4.30;99.90;;;;;;4903583;29;20038;-92
2023/12/02 02:13:56;;;;;;;19.00;6.70;;;-4.30;99.90;;;;;;4935070;29;20036;-90
2023/12/02 02:16:22;;;;;;;14.57;7.38;;;-4.30;99.90;;;;;;4903712;29;20432;-91
2023/12/02 02:18:48;;;;;;;18.17;6.68;;;-4.40;99.90;;;;;;4903396;29;20295;-92
2023/12/02 02:21:16;;;;;;;18.42;6.35;;;-4.40;99.90;;;;;;4903315;29;20084;-92
2023/12/02 02:23:42;;;;;;;16.63;6.45;;;-4.30;99.90;;;;;;4903247;29;20032;-93
2023/12/02 02:26:08;;;;;;;13.18;6.10;;;-4.30;99.90;;;;;;4903327;29;20064;-92
2023/12/02 02:28:33;;;;;;;14.80;6.30;;;-4.30;99.90;;;;;;4902978;29;20024;-91
2023/12/02 02:30:59;;;;;;;17.33;6.15;;;-4.40;99.90;;;;;;4935040;29;20039;-91
2023/12/02 02:33:26;;;;;;;16.27;5.78;;;-4.50;99.90;;;;;;4903324;29;20076;-92
2023/12/02 02:35:52;;;;;;;17.02;6.28;;;-4.40;99.90;;;;;;4908581;29;20456;-91
2023/12/02 02:38:18;;;;;;;11.98;5.65;;;-4.50;99.90;;;;;;4929872;29;20025;-93
2023/12/02 02:40:44;;;;;;;17.30;6.40;;;-4.40;99.90;;;;;;4905441;29;20044;-92
2023/12/02 02:43:11;;;;;;;14.43;5.68;;;-4.50;99.90;;;;;;4903442;29;20020;-92
2023/12/02 02:45:36;;;;;;;15.00;5.60;;;-4.50;99.90;;;;;;4903153;29;20395;-92
2023/12/02 02:48:02;;;;;;;13.40;6.32;;;-4.50;99.90;;;;;;4933345;29;20040;-92
2023/12/02 02:50:28;;;;;;;18.25;6.95;;;-4.50;99.90;;;;;;4901817;29;20032;-92
2023/12/02 02:52:53;;;;;;;19.80;6.80;;;-4.50;99.90;;;;;;4907348;29;20040;-92
2023/12/02 02:55:19;;;;;;;17.85;7.00;;;-4.60;99.90;;;;;;4904677;29;20086;-92
2023/12/02 02:57:45;;;;;;;16.42;6.78;;;-4.60;99.90;;;;;;4910583;29;20036;-90
2023/12/02 03:00:11;;;;;;;18.85;6.55;;;-4.60;99.90;;;;;;4923941;29;20056;-91
2023/12/02 03:02:37;;;;;;;18.23;7.10;;;-4.60;99.90;;;;;;4950375;29;20084;-91
2023/12/02 03:05:07;;;;;;;13.95;6.32;;;-4.60;99.90;;;;;;4906552;29;20032;-91
2023/12/02 03:07:32;;;;;;;17.77;7.18;;;-4.60;99.90;;;;;;4903292;29;20127;-91
2023/12/02 03:09:59;;;;;;;14.13;6.43;;;-4.60;99.90;;;;;;4901734;29;20138;-91
2023/12/02 03:12:26;;;;;;;16.02;5.88;;;-4.60;99.90;;;;;;4903190;29;20036;-91
2023/12/02 03:14:53;;;;;;;14.48;5.72;;;-4.60;99.90;;;;;;4903238;29;20035;-91
2023/12/02 03:17:19;;;;;;;19.85;7.25;;;-4.60;99.90;;;;;;4909906;29;20032;-90
2023/12/02 03:19:47;;;;;;;12.75;5.30;;;-4.60;99.90;;;;;;4925649;29;20013;-91
2023/12/02 03:22:12;;;;;;;15.57;5.28;;;-4.70;99.90;;;;;;4915830;29;20032;-90
2023/12/02 03:24:38;;;;;;;14.68;5.05;;;-4.70;99.90;;;;;;4904028;29;20111;-91
2023/12/02 03:27:04;;;;;;;13.88;5.45;;;-4.70;99.90;;;;;;4903011;29;20024;-91
2023/12/02 03:29:30;;;;;;;12.27;5.47;;;-4.80;99.90;;;;;;4903736;29;20024;-90
2023/12/02 03:31:55;;;;;;;11.88;5.53;;;-4.80;99.90;;;;;;4903297;29;20035;-91
2023/12/02 03:34:21;;;;;;;13.85;5.95;;;-4.80;99.90;;;;;;4934695;29;20547;-91
2023/12/02 03:36:47;;;;;;;11.77;5.28;;;-4.80;99.90;;;;;;4908949;29;20024;-91
2023/12/02 03:39:15;;;;;;;12.90;5.00;;;-4.80;99.90;;;;;;4908571;29;20056;-91
2023/12/02 03:41:42;;;;;;;10.85;5.07;;;-4.80;99.90;;;;;;4905092;29;20020;-92
2023/12/02 03:44:08;;;;;;;14.73;5.40;;;-4.90;99.90;;;;;;4901927;29;20095;-91
2023/12/02 03:46:35;;;;;;;21.17;7.07;;;-4.90;99.90;;;;;;4901932;29;20369;-92
2023/12/02 03:49:01;;;;;;;18.48;7.18;;;-4.90;99.90;;;;;;4901985;29;20032;-92
2023/12/02 03:51:27;;;;;;;22.17;7.05;;;-4.90;99.90;;;;;;4901383;29;20064;-91
2023/12/02 03:53:52;;;;;;;16.30;6.97;;;-4.90;99.90;;;;;;4901809;29;20028;-91
2023/12/02 03:56:18;;;;;;;22.10;6.43;;;-5.00;99.90;;;;;;4901962;29;20035;-91
2023/12/02 03:58:45;;;;;;;16.63;6.40;;;-5.00;99.90;;;;;;4901872;29;20099;-91
2023/12/02 04:01:11;;;;;;;18.55;6.30;;;-5.00;99.90;;;;;;4904030;29;20024;-91
2023/12/02 04:03:36;;;;;;;14.00;5.18;;;-5.10;99.90;;;;;;4916292;29;20032;-90
2023/12/02 04:06:03;;;;;;;14.75;4.90;;;-5.10;99.90;;;;;;4902950;29;20119;-90
2023/12/02 04:08:29;;;;;;;17.55;5.15;;;-5.10;99.90;;;;;;4898822;29;20048;-90
2023/12/02 04:10:55;;;;;;;13.82;5.57;;;-5.10;99.90;;;;;;4901654;29;20034;-90
2023/12/02 04:13:20;;;;;;;18.10;5.70;;;-5.00;99.90;;;;;;4901322;29;20046;-90
2023/12/02 04:15:46;;;;;;;13.63;4.95;;;-5.10;99.90;;;;;;4917995;29;20028;-90
2023/12/02 04:18:12;;;;;;;15.70;5.30;;;-5.00;99.90;;;;;;4901648;29;20032;-89
2023/12/02 04:20:38;;;;;;;17.60;5.63;;;-5.10;99.90;;;;;;4900934;29;20055;-90
2023/12/02 04:23:04;;;;;;;12.10;5.18;;;-5.10;99.90;;;;;;4900898;29;20046;-90
2023/12/02 04:25:30;;;;;;;12.88;5.28;;;-5.10;99.90;;;;;;4901015;29;20032;-91
2023/12/02 04:27:56;;;;;;;16.30;5.35;;;-5.10;99.90;;;;;;4900737;29;20027;-90
2023/12/02 04:30:21;;;;;;;21.33;5.40;;;-5.10;99.90;;;;;;4917319;29;20028;-91
2023/12/02 04:32:47;;;;;;;16.10;5.82;;;-5.00;99.90;;;;;;4900537;29;20110;-91
2023/12/02 04:35:14;;;;;;;14.25;4.93;;;-5.00;99.90;;;;;;4900745;29;20021;-89
2023/12/02 04:37:41;;;;;;;11.27;4.10;;;-5.00;99.90;;;;;;4900971;29;20123;-90
2023/12/02 04:40:11;;;;;;;9.70;4.72;;;-5.10;99.90;;;;;;4901281;29;20068;-90
2023/12/02 04:42:40;;;;;;;14.15;4.82;;;-5.10;99.90;;;;;;4902221;29;20031;-91
2023/12/02 04:45:07;;;;;;;13.07;5.40;;;-5.10;99.90;;;;;;4919906;29;20020;-90
2023/12/02 04:47:36;;;;;;;12.32;4.38;;;-5.10;99.90;;;;;;4920203;29;20384;-92
2023/12/02 04:50:05;;;;;;;12.35;4.53;;;-5.10;99.90;;;;;;4935096;29;20039;-90
2023/12/02 04:52:32;;;;;;;18.23;4.82;;;-5.10;99.90;;;;;;4898530;29;20131;-90
2023/12/02 04:54:57;;;;;;;11.75;3.90;;;-5.10;99.90;;;;;;4901290;29;20400;-91
2023/12/02 04:57:25;;;;;;;10.93;4.30;;;-5.10;99.90;;;;;;4901065;29;20036;-90
2023/12/02 04:59:51;;;;;;;11.00;4.55;;;-5.10;99.90;;;;;;4900900;29;20028;-90
2023/12/02 05:02:19;;;;;;;11.38;4.50;;;-5.10;99.90;;;;;;4900983;29;20028;-91
2023/12/02 05:04:45;;;;;;;13.88;4.72;;;-5.20;99.90;;;;;;4900631;29;20025;-90
2023/12/02 05:07:11;;;;;;;14.00;4.13;;;-5.10;99.90;;;;;;4901271;29;20542;-92
2023/12/02 05:09:37;;;;;;;12.65;4.20;;;-5.10;99.90;;;;;;4903557;29;20082;-88
2023/12/02 05:12:03;;;;;;;10.35;4.03;;;-5.20;99.90;;;;;;4903727;29;20032;-89
2023/12/02 05:14:29;;;;;;;8.85;3.80;;;-5.20;99.90;;;;;;4908693;29;20064;-91
2023/12/02 05:16:54;;;;;;;7.68;3.70;;;-5.10;99.90;;;;;;4919076;29;20020;-90
2023/12/02 05:19:20;;;;;;;7.95;3.33;;;-5.20;99.90;;;;;;4917958;29;20028;-91
2023/12/02 05:21:46;;;;;;;10.18;4.20;;;-5.20;99.90;;;;;;4915553;29;20061;-90
2023/12/02 05:24:11;;;;;;;11.10;4.43;;;-5.20;99.90;;;;;;4915791;29;20476;-91
2023/12/02 05:26:37;;;;;;;10.32;4.25;;;-5.20;99.90;;;;;;4916329;29;20101;-90
2023/12/02 05:29:05;;;;;;;10.60;3.85;;;-5.30;99.90;;;;;;4913823;29;20514;-89
2023/12/02 05:31:31;;;;;;;10.45;4.10;;;-5.30;99.90;;;;;;4909366;29;20021;-90
2023/12/02 05:33:58;;;;;;;19.33;5.18;;;-5.30;99.90;;;;;;4941762;29;20381;-90
2023/12/02 05:36:24;;;;;;;7.85;3.63;;;-5.30;99.90;;;;;;4905655;29;20076;-91
2023/12/02 05:38:49;;;;;;;10.77;4.00;;;-5.40;99.90;;;;;;4904964;29;20032;-90
2023/12/02 05:41:15;;;;;;;11.50;4.70;;;-5.40;99.90;;;;;;4904960;29;20024;-90
2023/12/02 05:43:41;;;;;;;10.77;4.95;;;-5.40;99.90;;;;;;4904113;29;20032;-91
2023/12/02 05:46:07;;;;;;;9.52;4.07;;;-5.40;99.90;;;;;;4904330;29;20031;-90
2023/12/02 05:48:32;;;;;;;16.88;4.45;;;-5.50;99.90;;;;;;4904071;29;20118;-90
2023/12/02 05:51:01;;;;;;;10.40;4.30;;;-5.40;99.90;;;;;;4904272;29;20032;-90
2023/12/02 05:53:27;;;;;;;8.52;3.90;;;-5.50;99.90;;;;;;4903544;29;20036;-91
2023/12/02 05:55:53;;;;;;;9.07;4.82;;;-5.50;99.90;;;;;;4935561;29;20173;-90
2023/12/02 05:58:18;;;;;;;9.50;3.80;;;-5.50;99.90;;;;;;4903596;29;20031;-91
2023/12/02 06:00:44;;;;;;;11.35;4.07;;;-5.40;99.90;;;;;;4903544;29;20028;-90
2023/12/02 06:03:10;;;;;;;11.95;3.90;;;-5.50;99.90;;;;;;4903616;29;20024;-92
2023/12/02 06:05:35;;;;;;;12.07;4.38;;;-5.50;99.90;;;;;;4904093;29;20087;-91
2023/12/02 06:08:01;;;;;;;12.18;4.70;;;-5.50;99.90;;;;;;4904647;29;20134;-91
2023/12/02 06:10:26;;;;;;;13.23;5.00;;;-5.50;99.90;;;;;;4917231;29;20520;-90
2023/12/02 06:12:52;;;;;;;14.30;4.25;;;-5.60;99.90;;;;;;4886615;29;20372;-91
2023/12/02 06:15:19;;;;;;;15.90;5.18;;;-5.60;99.90;;;;;;4894867;29;20108;-89
2023/12/02 06:17:45;;;;;;;12.43;5.05;;;-5.60;99.90;;;;;;4908439;29;20028;-90
2023/12/02 06:20:11;;;;;;;17.30;5.38;;;-5.70;99.90;;;;;;4917310;29;20099;-91
2023/12/02 06:22:37;;;;;;;19.70;5.47;;;-5.70;99.90;;;;;;4888853;29;20044;-92
2023/12/02 06:25:04;;;;;;;15.35;5.50;;;-5.70;99.90;;;;;;4887299;29;20033;-90
2023/12/02 06:27:29;;;;;;;13.27;5.38;;;-5.70;99.90;;;;;;4917367;29;20033;-92
2023/12/02 06:29:55;;;;;;;13.70;5.38;;;-5.70;99.90;;;;;;4885627;29;20025;-91
2023/12/02 06:32:21;;;;;;;12.63;4.63;;;-5.80;99.90;;;;;;4892470;29;20530;-91
2023/12/02 06:34:46;;;;;;;16.30;5.00;;;-5.80;99.90;;;;;;4908846;29;20032;-91
2023/12/02 06:37:12;;;;;;;16.45;5.22;;;-5.80;99.90;;;;;;4887525;29;20554;-92
2023/12/02 06:39:37;;;;;;;13.88;4.70;;;-5.80;99.90;;;;;;4885259;29;20032;-93
2023/12/02 06:42:04;;;;;;;15.50;5.05;;;-5.80;99.90;;;;;;4916115;29;20032;-89
2023/12/02 06:44:30;;;;;;;14.00;4.20;;;-5.80;99.90;;;;;;4884869;29;20488;-90
2023/12/02 06:46:55;;;;;;;16.00;4.68;;;-5.80;99.90;;;;;;4884814;29;20402;-90
2023/12/02 06:49:21;;;;;;;11.18;5.05;;;-5.80;99.90;;;;;;4884686;29;20024;-90
2023/12/02 06:51:47;;;;;;;10.18;4.32;;;-5.70;99.90;;;;;;4884594;29;20040;-90
2023/12/02 06:54:12;;;;;;;18.50;4.88;;;-5.70;99.90;;;;;;4884496;29;20123;-89
2023/12/02 06:56:39;;;;;;;12.90;4.90;;;-5.70;99.90;;;;;;4901643;29;20027;-90
2023/12/02 06:59:04;;;;;;;16.23;5.25;;;-5.80;99.90;;;;;;4924116;29;20036;-89
2023/12/02 07:01:31;;;;;;;13.00;4.65;;;-5.80;99.90;;;;;;4890615;29;20042;-90
2023/12/02 07:03:59;;;;;;;12.57;5.32;;;-5.80;99.90;;;;;;4884765;29;20024;-90
2023/12/02 07:06:26;;;;;;;16.50;5.78;;;-5.90;99.90;;;;;;4884915;29;20029;-89
2023/12/02 07:08:53;;;;;;;14.18;6.53;;;-5.90;99.90;;;;;;4890528;29;20052;-90
2023/12/02 07:11:19;;;;;;;12.70;5.55;;;-5.90;99.90;;;;;;4903173;29;20089;-89
2023/12/02 07:13:45;;;;;;;16.20;5.50;;;-5.90;99.90;;;;;;4934187;29;20628;-90
2023/12/02 07:16:11;;;;;;;13.73;5.10;;;-5.90;99.90;;;;;;4902659;29;20058;-90
2023/12/02 07:18:37;;;;;;;14.82;5.40;;;-5.90;99.90;;;;;;4934732;29;20503;-90
2023/12/02 07:21:05;;;;;;;16.02;6.15;;;-5.90;99.90;;;;;;4903064;29;20028;-89
2023/12/02 07:23:31;;;;;;;14.65;5.85;;;-5.90;99.90;;;;;;4902412;29;20487;-90
2023/12/02 07:25:58;;;;;;;14.45;5.88;;;-5.90;99.90;;;;;;4903087;29;20428;-91
2023/12/02 07:28:24;;;;;;;13.25;5.00;;;-5.90;99.90;;;;;;4904054;29;20028;-91
2023/12/02 07:30:51;;;;;;;20.10;6.78;;;-5.90;99.90;;;;;;4898038;29;20024;-91
2023/12/02 07:33:21;;;;;;;19.00;6.10;;;-5.90;99.90;;;;;;4885802;29;20088;-91
2023/12/02 07:35:47;;;;;;;16.10;5.13;;;-5.90;99.90;;;;;;4891520;29;20051;-92
2023/12/02 07:38:13;;;;;;;13.25;4.93;;;-6.00;99.90;;;;;;4906128;29;20041;-91
2023/12/02 07:40:38;;;;;;;16.00;5.03;;;-6.00;99.90;;;;;;4887398;29;20036;-91
2023/12/02 07:43:04;;;;;;;18.30;6.65;;;-6.00;99.90;;;;;;4884839;29;20032;-90
2023/12/02 07:45:29;;;;;;;15.80;6.47;;;-6.00;99.90;;;;;;4885098;29;20388;-91
2023/12/02 07:47:55;;;;;;;16.45;6.70;;;-6.00;99.90;;;;;;4884294;29;20036;-91
2023/12/02 07:50:22;;;;;;;15.73;5.47;;;-6.10;99.90;;;;;;4884285;29;20033;-91
2023/12/02 07:52:47;;;;;;;16.77;5.82;;;-6.10;99.90;;;;;;4883986;29;20053;-91
2023/12/02 07:55:13;;;;;;;14.05;5.55;;;-6.10;99.90;;;;;;4882877;29;20119;-91
2023/12/02 07:57:39;;;;;;;16.35;6.00;;;-6.20;99.90;;;;;;4883408;29;20064;-92
2023/12/02 08:00:07;;;;;;;12.90;5.80;;;-6.20;99.90;;;;;;4883283;29;20134;-90
2023/12/02 08:02:33;;;;;;;15.57;6.28;;;-6.20;99.90;;;;;;4900059;29;20391;-91
2023/12/02 08:04:59;;;;;;;15.18;5.40;;;-6.10;99.90;;;;;;4908581;29;20028;-91
2023/12/02 08:07:25;;;;;;;16.33;5.95;;;-6.20;99.90;;;;;;4935269;29;20039;-91
2023/12/02 08:09:50;;;;;;;14.77;5.35;;;-6.20;99.90;;;;;;4907969;29;20128;-91
2023/12/02 08:12:16;;;;;;;14.85;5.03;;;-6.10;99.90;;;;;;4909373;29;20595;-90
2023/12/02 08:14:42;;;;;;;12.48;4.55;;;-6.10;99.90;;;;;;4899537;29;20040;-91
2023/12/02 08:17:07;;;;;;;14.13;4.93;;;-6.10;99.90;;;;;;4910997;29;20032;-92
2023/12/02 08:19:34;;;;;;;14.45;5.88;;;-6.10;99.90;;;;;;4909045;29;20028;-90
2023/12/02 08:21:59;;;;;;;17.38;6.20;;;-6.10;99.90;;;;;;4917237;29;20032;-92
2023/12/02 08:24:25;;;;;;;19.83;5.82;;;-6.20;99.90;;;;;;4917955;29;20089;-91
2023/12/02 08:26:51;;;;;;;16.23;5.53;;;-6.10;99.90;;;;;;4940946;29;20478;-90
2023/12/02 08:29:17;;;;;;;15.65;5.90;;;-6.10;99.90;;;;;;4918723;29;20096;-91
2023/12/02 08:31:43;;;;;;;15.77;6.05;;;-6.10;99.90;;;;;;4914022;29;20052;-89
2023/12/02 08:34:08;;;;;;;22.35;7.50;;;-6.10;99.90;;;;;;4912624;29;20122;-90
2023/12/02 08:36:34;;;;;;;20.90;9.25;;;-6.10;99.90;;;;;;4904872;29;20762;-92
2023/12/02 08:39:03;;;;;;;22.08;6.97;;;-6.10;99.90;;;;;;4918063;29;20031;-92
2023/12/02 08:41:29;;;;;;;18.17;6.68;;;-6.10;99.90;;;;;;4928323;29;20102;-91
2023/12/02 08:43:54;;;;;;;16.73;6.13;;;-6.10;99.90;;;;;;4910365;29;20090;-90
2023/12/02 08:46:20;;;;;;;16.75;6.30;;;-6.10;99.90;;;;;;4911828;29;20044;-92
2023/12/02 08:48:46;;;;;;;19.90;7.03;;;-6.00;99.90;;;;;;4902634;29;20043;-91
2023/12/02 08:51:12;;;;;;;18.05;5.95;;;-6.10;99.90;;;;;;4901972;29;20043;-90
2023/12/02 08:53:38;;;;;;;20.00;6.90;;;-6.00;99.90;;;;;;4901607;29;20459;-89
2023/12/02 08:56:04;;;;;;;19.65;6.82;;;-6.00;99.90;;;;;;4933095;29;20119;-91
2023/12/02 08:58:30;;;;;;;16.50;6.55;;;-5.90;99.90;;;;;;4901271;29;20228;-90
2023/12/02 09:00:56;;;;;;;19.20;7.15;;;-6.00;99.90;;;;;;4901336;29;20612;-88
2023/12/02 09:03:25;;;;;;;17.83;6.68;;;-5.90;99.90;;;;;;4934414;29;20060;-89
2023/12/02 09:05:56;;;;;;;28.00;9.35;;;-5.80;99.90;;;;;;4905502;29;20060;-90
2023/12/02 09:08:22;;;;;;;42.38;11.85;;;-5.90;99.90;;;;;;4906982;29;20047;-91
2023/12/02 09:10:48;;;;;;;26.65;9.70;;;-5.80;99.90;;;;;;4907876;29;20035;-89
2023/12/02 09:13:38;;;;;;;25.58;10.02;;;-5.70;99.90;;;;;;4902845;29;20123;-88
2023/12/02 09:16:04;;;;;;;26.33;9.33;;;-5.60;99.90;;;;;;4900274;29;20044;-92
2023/12/02 09:18:34;;;;;;;27.85;10.80;;;-5.40;99.90;;;;;;4893794;29;20281;-89
2023/12/02 09:21:00;;;;;;;30.10;9.30;;;-5.30;99.90;;;;;;4919642;29;20016;-89
2023/12/02 09:23:27;;;;;;;25.42;9.43;;;-5.10;99.90;;;;;;4899485;29;20053;-90
2023/12/02 09:25:56;;;;;;;31.45;10.98;;;-4.90;99.90;;;;;;4903293;29;20029;-90
2023/12/02 09:28:26;;;;;;;25.52;10.15;;;-4.70;99.90;;;;;;4902615;29;20024;-89
2023/12/02 09:31:08;;;;;;;28.15;8.98;;;-4.40;99.90;;;;;;4900901;29;20036;-89
2023/12/02 09:33:34;;;;;;;26.10;9.65;;;-4.10;99.90;;;;;;4904073;29;20495;-90
2023/12/02 09:36:02;;;;;;;22.27;9.23;;;-3.90;99.90;;;;;;4908972;29;20020;-90
2023/12/02 09:38:28;;;;;;;17.02;8.00;;;-3.60;99.90;;;;;;4903583;29;20029;-89
2023/12/02 09:41:06;;;;;;;17.15;7.82;;;-3.40;99.90;;;;;;4905675;29;20308;-87
2023/12/02 09:44:11;;;;;;;18.58;7.45;;;-3.10;99.90;;;;;;4934818;29;20036;-87
2023/12/02 09:46:45;;;;;;;19.13;8.18;;;-2.70;99.90;;;;;;4926172;29;20054;-87
2023/12/02 09:49:16;;;;;;;19.58;7.65;;;-2.30;99.90;;;;;;4904335;29;20071;-89
2023/12/02 09:51:48;;;;;;;15.35;7.03;;;-1.90;99.90;;;;;;4908428;29;20040;-88
2023/12/02 09:54:23;;;;;;;17.15;8.43;;;-1.60;99.90;;;;;;4930110;29;20055;-89
2023/12/02 09:57:17;;;;;;;20.67;7.32;;;-1.30;99.90;;;;;;4906358;29;20025;-90
2023/12/02 10:00:05;;;;;;;15.73;6.65;;;-0.80;99.90;;;;;;4895261;29;20099;-88
2023/12/02 10:02:55;;;;;;;18.00;6.43;;;-0.50;99.90;;;;;;4899089;29;20047;-89
2023/12/02 10:05:21;;;;;;;16.08;6.07;;;-0.20;99.90;;;;;;4907989;29;20025;-88
2023/12/02 10:08:04;;;;;;;19.02;6.60;;;0.10;99.90;;;;;;4901089;29;20020;-88
2023/12/02 10:10:44;;;;;;;18.65;7.80;;;0.30;99.90;;;;;;4900209;29;20491;-87
2023/12/02 10:13:15;;;;;;;20.02;7.70;;;0.60;99.90;;;;;;4899594;29;20036;-90
2023/12/02 10:15:42;;;;;;;21.85;8.25;;;0.90;99.90;;;;;;4910558;29;20029;-89
2023/12/02 10:18:13;;;;;;;16.17;7.85;;;1.10;99.90;;;;;;4905034;29;20028;-88
2023/12/02 10:20:41;;;;;;;18.17;7.05;;;1.30;99.90;;;;;;4900715;29;20032;-88
2023/12/02 10:23:23;;;;;;;19.67;7.32;;;1.50;99.90;;;;;;4903276;29;20025;-89
2023/12/02 10:26:02;;;;;;;22.92;7.25;;;1.70;99.90;;;;;;4900938;29;20032;-89
2023/12/02 10:28:32;;;;;;;16.70;6.75;;;1.90;99.90;;;;;;4934260;29;20032;-89
2023/12/02 10:31:04;;;;;;;14.93;6.38;;;2.00;99.90;;;;;;4903129;29;20502;-89
2023/12/02 10:33:54;;;;;;;13.27;6.10;;;2.20;99.90;;;;;;4937793;29;20491;-89
2023/12/02 10:36:21;;;;;;;15.32;6.25;;;2.50;99.90;;;;;;4933041;29;20039;-90
2023/12/02 10:39:10;;;;;;;17.40;6.68;;;2.90;99.90;;;;;;4908206;29;20104;-89
2023/12/02 10:42:00;;;;;;;15.20;6.88;;;3.10;99.90;;;;;;4904788;29;20024;-89
2023/12/02 10:44:31;;;;;;;21.38;10.23;;;3.20;99.90;;;;;;4903050;29;20060;-90
2023/12/02 10:46:59;;;;;;;21.15;8.00;;;3.40;99.90;;;;;;4903225;29;20044;-90
2023/12/02 10:49:27;;;;;;;13.23;5.38;;;3.60;99.90;;;;;;4935756;29;20032;-89
2023/12/02 10:51:55;;;;;;;13.80;6.22;;;3.80;99.90;;;;;;4902813;29;20028;-89
2023/12/02 10:54:24;;;;;;;13.63;5.75;;;4.00;99.90;;;;;;4905619;29;20149;-90
2023/12/02 10:56:56;;;;;;;14.80;6.72;;;4.10;99.90;;;;;;4906348;29;20027;-88
2023/12/02 10:59:29;;;;;;;12.32;5.78;;;4.20;99.90;;;;;;4903489;29;20036;-89
2023/12/02 11:02:19;;;;;;;17.23;5.97;;;4.40;99.90;;;;;;4934505;29;20491;-88
2023/12/02 11:04:47;;;;;;;16.20;6.63;;;4.60;99.90;;;;;;4901275;29;20024;-89
2023/12/02 11:07:16;;;;;;;14.57;6.70;;;4.70;99.90;;;;;;4902880;29;20112;-90
2023/12/02 11:09:59;;;;;;;15.15;7.00;;;5.00;99.90;;;;;;4903232;29;20055;-88
2023/12/02 11:13:00;;;;;;;16.65;6.43;;;5.20;99.90;;;;;;4901263;29;20040;-90
2023/12/02 11:15:27;;;;;;;;;;;5.40;99.90;;;;;;4897418;29;20060;-90
2023/12/02 11:17:56;;;;;;;14.77;5.68;;;5.50;99.90;;;;;;4902594;29;20414;-91
2023/12/02 11:20:29;;;;;;;20.20;7.28;;;5.60;99.90;;;;;;4903631;29;20040;-90
2023/12/02 11:23:04;;;;;;;12.75;6.30;;;5.80;99.90;;;;;;4903804;29;20099;-90
2023/12/02 11:26:11;;;;;;;14.20;6.80;;;6.10;99.90;;;;;;4903589;29;20028;-90
2023/12/02 11:28:59;;;;;;;15.60;6.18;;;6.40;99.90;;;;;;4836341;29;20041;-91
2023/12/02 11:31:33;;;;;;;15.98;5.85;;;6.50;99.90;;;;;;4834833;29;20090;-90
2023/12/02 11:34:26;;;;;;;15.93;6.70;;;6.70;99.40;;;;;;4832682;29;20091;-90
2023/12/02 11:37:24;;;;;;;14.63;6.38;;;6.90;98.30;;;;;;4828416;29;20121;-90
2023/12/02 11:40:22;;;;;;;15.23;6.50;;;7.20;97.60;;;;;;4852647;29;20050;-90
2023/12/02 11:43:05;;;;;;;14.98;6.50;;;7.50;96.40;;;;;;4832974;29;20026;-90
2023/12/02 11:45:40;;;;;;;13.65;6.13;;;7.70;95.60;;;;;;4829598;29;20038;-89
2023/12/02 11:48:19;;;;;;;13.93;6.20;;;8.00;94.80;;;;;;4827401;29;20026;-90
2023/12/02 11:51:03;;;;;;;15.00;6.30;;;8.20;93.90;;;;;;4827025;29;20029;-89
2023/12/02 11:53:43;;;;;;;14.88;6.88;;;8.40;93.10;;;;;;4827831;29;20057;-91
2023/12/02 11:56:16;;;;;;;14.25;6.07;;;8.50;92.50;;;;;;4827064;29;20037;-90
2023/12/02 11:59:10;;;;;;;17.10;6.97;;;8.70;92.00;;;;;;4845279;29;20511;-91
2023/12/02 12:01:51;;;;;;;14.60;5.97;;;8.90;91.40;;;;;;4934802;29;20028;-90
2023/12/02 12:04:49;;;;;;;17.73;7.05;;;9.10;91.10;;;;;;4911387;29;20032;-90
2023/12/02 12:07:34;;;;;;;16.50;5.97;;;9.30;90.50;;;;;;4939005;29;20021;-91
2023/12/02 12:10:09;;;;;;;15.25;6.47;;;9.60;90.30;;;;;;4904724;29;20072;-91
2023/12/02 12:12:39;;;;;;;15.25;6.25;;;9.90;88.80;;;;;;4902321;29;20036;-91
2023/12/02 12:15:05;;;;;;;17.98;6.30;;;10.10;87.80;;;;;;4924609;29;20020;-91
2023/12/02 12:17:31;;;;;;;16.95;6.50;;;10.30;87.10;;;;;;4922570;29;20041;-91
2023/12/02 12:19:59;;;;;;;16.27;7.07;;;10.50;85.80;;;;;;4911467;29;20087;-91
2023/12/02 12:22:26;;;;;;;15.02;7.93;;;10.60;84.70;;;;;;4901695;29;20020;-89
2023/12/02 12:24:52;;;;;;;26.73;12.23;;;10.80;83.70;;;;;;4915801;29;20039;-90
2023/12/02 12:27:17;;;;;;;22.25;10.98;;;10.90;82.80;;;;;;4919647;29;20035;-89
2023/12/02 12:29:57;;;;;;;18.25;8.52;;;11.00;82.20;;;;;;4920637;29;20035;-90
2023/12/02 12:32:23;;;;;;;16.53;8.23;;;11.10;81.30;;;;;;4917408;29;20488;-90
2023/12/02 12:34:55;;;;;;;12.68;6.43;;;11.30;80.80;;;;;;4916546;29;20290;-91
2023/12/02 12:37:22;;;;;;;12.85;6.80;;;11.40;80.30;;;;;;4906869;29;20107;-91
2023/12/02 12:39:49;;;;;;;15.10;7.75;;;11.70;79.70;;;;;;4922125;29;20107;-91
2023/12/02 12:42:21;;;;;;;16.20;7.38;;;12.00;78.80;;;;;;4904104;29;20039;-90
2023/12/02 12:44:47;;;;;;;16.35;6.97;;;12.10;77.80;;;;;;4936674;29;20039;-91